Time;durP1;ratioP1;P1;durP2;ratioP2;P2;SDS_P1;SDS_P2;PMS_P1;PMS_P2;Temp;Humidity;BMP_temperature;BMP_pressure;BME280_temperature;BME280_humidity;BME280_pressure;Samples;Min_cycle;Max_cycle;Signal;HPM_P1;HPM_P2
2023/03/17 00:01:46;;;;;;;3.23;2.30;;;8.40;99.90;;;;;;5040991;28;20581;-88
2023/03/17 00:04:12;;;;;;;1.53;1.17;;;8.50;99.90;;;;;;5061939;28;20241;-89
2023/03/17 00:06:40;;;;;;;0.90;0.67;;;8.40;99.90;;;;;;5043902;28;20236;-92
2023/03/17 00:09:13;;;;;;;3.63;1.30;;;8.50;99.90;;;;;;5043761;28;20297;-88
2023/03/17 00:11:40;;;;;;;2.80;2.13;;;8.50;99.90;;;;;;5060999;28;20178;-89
2023/03/17 00:14:06;;;;;;;1.07;0.97;;;8.50;99.90;;;;;;5060576;28;20213;-89
2023/03/17 00:16:37;;;;;;;2.63;1.83;;;8.50;99.90;;;;;;5051613;28;20593;-89
2023/03/17 00:19:04;;;;;;;0.67;0.67;;;8.50;99.90;;;;;;5062393;28;20729;-91
2023/03/17 00:21:32;;;;;;;1.80;1.67;;;8.50;99.90;;;;;;5046357;28;20233;-91
2023/03/17 00:23:58;;;;;;;2.03;1.67;;;8.40;99.90;;;;;;5046039;28;20186;-90
2023/03/17 00:26:25;;;;;;;1.13;0.93;;;8.40;99.90;;;;;;5065586;28;20186;-89
2023/03/17 00:28:52;;;;;;;1.63;1.53;;;8.40;99.90;;;;;;5067397;28;20275;-90
2023/03/17 00:31:21;;;;;;;2.97;2.67;;;8.40;99.90;;;;;;5063470;28;20226;-89
2023/03/17 00:33:49;;;;;;;1.43;1.07;;;8.40;99.90;;;;;;5065128;28;20630;-89
2023/03/17 00:36:18;;;;;;;3.13;1.57;;;8.30;99.90;;;;;;5088554;28;20239;-90
2023/03/17 00:38:44;;;;;;;3.17;2.07;;;8.30;99.90;;;;;;5060158;28;20177;-89
2023/03/17 00:41:11;;;;;;;2.03;1.87;;;8.30;99.90;;;;;;5065284;28;20194;-89
2023/03/17 00:43:37;;;;;;;1.27;0.87;;;8.30;99.90;;;;;;5056918;28;20735;-88
2023/03/17 00:46:27;;;;;;;1.57;1.47;;;8.30;99.90;;;;;;5064201;28;20251;-88
2023/03/17 00:48:53;;;;;;;1.47;0.80;;;8.30;99.90;;;;;;5067415;28;20248;-89
2023/03/17 00:51:20;;;;;;;1.10;1.10;;;8.30;99.90;;;;;;5064239;28;20206;-90
2023/03/17 00:53:46;;;;;;;0.93;0.93;;;8.30;99.90;;;;;;5052280;28;20181;-90
2023/03/17 00:56:15;;;;;;;1.10;1.03;;;8.30;99.90;;;;;;5065207;28;20224;-90
2023/03/17 00:58:41;;;;;;;1.00;0.90;;;8.20;99.90;;;;;;5073251;28;20825;-89
2023/03/17 01:01:07;;;;;;;1.77;1.63;;;8.20;99.90;;;;;;5063626;28;20200;-89
2023/03/17 01:03:34;;;;;;;2.10;1.93;;;8.20;99.90;;;;;;5062809;28;20224;-89
2023/03/17 01:06:03;;;;;;;3.60;1.90;;;8.20;99.90;;;;;;5070597;28;20650;-90
2023/03/17 01:08:30;;;;;;;2.10;1.80;;;8.20;99.90;;;;;;5061675;28;20193;-89
2023/03/17 01:10:57;;;;;;;1.90;1.83;;;8.30;99.90;;;;;;5066123;28;20217;-90
2023/03/17 01:13:26;;;;;;;1.67;0.63;;;8.30;99.90;;;;;;5066457;28;20239;-89
2023/03/17 01:15:54;;;;;;;0.57;0.57;;;8.30;99.90;;;;;;5053215;28;20229;-89
2023/03/17 01:18:21;;;;;;;2.07;1.37;;;8.30;99.90;;;;;;5065279;28;20217;-90
2023/03/17 01:20:48;;;;;;;1.17;1.07;;;8.30;99.90;;;;;;5065978;28;20619;-90
2023/03/17 01:23:14;;;;;;;3.33;1.90;;;8.30;99.90;;;;;;5061116;28;20231;-89
2023/03/17 01:25:41;;;;;;;1.60;1.50;;;8.30;99.90;;;;;;5060767;28;20221;-87
2023/03/17 01:28:12;;;;;;;4.27;1.37;;;8.30;99.90;;;;;;5063845;28;20213;-90
2023/03/17 01:30:38;;;;;;;1.13;1.03;;;8.30;99.90;;;;;;5064573;28;20212;-90
2023/03/17 01:33:08;;;;;;;1.50;1.10;;;8.30;99.90;;;;;;5063531;28;20213;-89
2023/03/17 01:35:35;;;;;;;2.13;1.90;;;8.30;99.90;;;;;;5063358;28;20202;-89
2023/03/17 01:38:02;;;;;;;2.50;1.43;;;8.30;99.90;;;;;;5060753;28;20230;-89
2023/03/17 01:40:43;;;;;;;2.10;1.93;;;8.20;99.90;;;;;;5060189;28;20266;-89
2023/03/17 01:43:09;;;;;;;4.27;1.47;;;8.20;99.90;;;;;;5058896;28;20202;-89
2023/03/17 01:46:12;;;;;;;1.60;1.50;;;8.20;99.90;;;;;;5060709;28;20282;-89
2023/03/17 01:49:03;;;;;;;1.00;1.00;;;8.20;99.90;;;;;;5059287;28;20240;-89
2023/03/17 01:51:35;;;;;;;0.70;0.70;;;8.20;99.90;;;;;;5063908;28;20292;-90
2023/03/17 01:54:05;;;;;;;1.47;1.33;;;8.20;99.90;;;;;;5067603;28;20229;-89
2023/03/17 01:56:31;;;;;;;1.40;1.17;;;8.20;99.90;;;;;;5063152;28;20206;-90
2023/03/17 01:59:01;;;;;;;1.43;1.33;;;8.30;99.90;;;;;;5061272;28;20221;-90
2023/03/17 02:01:34;;;;;;;1.53;1.43;;;8.30;99.90;;;;;;5061585;28;20222;-90
2023/03/17 02:04:00;;;;;;;0.90;0.90;;;8.30;99.90;;;;;;5059262;28;20557;-90
2023/03/17 02:06:26;;;;;;;0.87;0.87;;;8.30;99.90;;;;;;5061877;28;20214;-88
2023/03/17 02:08:52;;;;;;;4.07;1.53;;;8.20;99.90;;;;;;5050193;28;20189;-88
2023/03/17 02:11:19;;;;;;;1.07;0.80;;;8.20;99.90;;;;;;5066489;28;20189;-88
2023/03/17 02:13:45;;;;;;;1.13;1.13;;;8.20;99.90;;;;;;5058497;28;20224;-90
2023/03/17 02:16:16;;;;;;;1.37;1.27;;;8.20;99.90;;;;;;5060727;28;20218;-89
2023/03/17 02:18:42;;;;;;;0.73;0.73;;;8.20;99.90;;;;;;5042276;28;20205;-89
2023/03/17 02:21:31;;;;;;;1.47;1.30;;;8.10;99.90;;;;;;5059745;28;20213;-88
2023/03/17 02:24:00;;;;;;;5.60;1.83;;;8.10;99.90;;;;;;5068721;28;20559;-88
2023/03/17 02:26:30;;;;;;;0.67;0.67;;;8.10;99.90;;;;;;5085077;28;20190;-89
2023/03/17 02:28:55;;;;;;;1.07;0.80;;;8.10;99.90;;;;;;5061011;28;20218;-89
2023/03/17 02:31:24;;;;;;;2.90;1.60;;;8.10;99.90;;;;;;5058534;28;20278;-90
2023/03/17 02:33:51;;;;;;;2.50;1.53;;;8.10;99.90;;;;;;5055295;28;20668;-91
2023/03/17 02:36:16;;;;;;;2.50;1.17;;;8.10;99.90;;;;;;5056207;28;20702;-89
2023/03/17 02:38:42;;;;;;;3.13;1.17;;;8.00;99.90;;;;;;5040205;28;20324;-89
2023/03/17 02:41:08;;;;;;;1.93;0.93;;;8.00;99.90;;;;;;5057783;28;20288;-88
2023/03/17 02:43:34;;;;;;;1.40;1.30;;;8.00;99.90;;;;;;5057017;28;20213;-89
2023/03/17 02:46:01;;;;;;;1.70;1.60;;;8.00;99.90;;;;;;5054718;28;20350;-89
2023/03/17 02:48:27;;;;;;;0.77;0.77;;;8.00;99.90;;;;;;5054210;28;20613;-88
2023/03/17 02:50:52;;;;;;;1.30;0.80;;;7.90;99.90;;;;;;5056975;28;20276;-88
2023/03/17 02:53:18;;;;;;;1.33;1.23;;;7.90;99.90;;;;;;5053827;28;20260;-89
2023/03/17 02:55:44;;;;;;;0.87;0.87;;;7.90;99.90;;;;;;5053573;28;20221;-89
2023/03/17 02:58:10;;;;;;;1.00;1.00;;;7.90;99.90;;;;;;5047107;28;20232;-89
2023/03/17 03:00:37;;;;;;;1.27;0.80;;;7.80;99.90;;;;;;5055894;28;20300;-89
2023/03/17 03:03:03;;;;;;;0.97;0.97;;;7.80;99.90;;;;;;5037117;28;20209;-92
2023/03/17 03:05:29;;;;;;;2.07;1.47;;;7.80;99.90;;;;;;5040125;28;20288;-91
2023/03/17 03:07:55;;;;;;;1.20;0.80;;;7.80;99.90;;;;;;5055258;28;20213;-90
2023/03/17 03:10:20;;;;;;;1.20;0.93;;;7.80;99.90;;;;;;5022641;28;20213;-88
2023/03/17 03:12:46;;;;;;;1.03;1.03;;;7.70;99.90;;;;;;5056778;28;20690;-88
2023/03/17 03:15:13;;;;;;;1.33;1.23;;;7.70;99.90;;;;;;5056455;28;20282;-89
2023/03/17 03:17:39;;;;;;;1.60;1.40;;;7.70;99.90;;;;;;5039872;28;20285;-89
2023/03/17 03:20:05;;;;;;;1.50;1.37;;;7.70;99.90;;;;;;5056569;28;20252;-89
2023/03/17 03:22:31;;;;;;;2.80;1.20;;;7.70;99.90;;;;;;5055906;28;20259;-89
2023/03/17 03:24:57;;;;;;;0.90;0.90;;;7.70;99.90;;;;;;5046554;28;20706;-89
2023/03/17 03:27:22;;;;;;;0.53;0.53;;;7.70;99.90;;;;;;5059183;28;20690;-89
2023/03/17 03:29:48;;;;;;;1.17;1.10;;;7.70;99.90;;;;;;5047909;28;20194;-90
2023/03/17 03:32:14;;;;;;;1.27;1.17;;;7.70;99.90;;;;;;5040474;28;20182;-88
2023/03/17 03:34:40;;;;;;;1.07;0.97;;;7.80;99.90;;;;;;5056687;28;20312;-86
2023/03/17 03:37:06;;;;;;;1.60;1.47;;;7.70;99.90;;;;;;5056638;28;20297;-88
2023/03/17 03:39:32;;;;;;;0.40;0.40;;;7.80;99.90;;;;;;5059410;28;20250;-88
2023/03/17 03:41:58;;;;;;;2.20;1.37;;;7.80;99.90;;;;;;5047580;28;20190;-88
2023/03/17 03:44:24;;;;;;;1.30;1.10;;;7.80;99.90;;;;;;5059304;28;20193;-87
2023/03/17 03:46:50;;;;;;;1.53;1.20;;;7.80;99.90;;;;;;5057455;28;20691;-88
2023/03/17 03:49:16;;;;;;;1.07;1.00;;;7.80;99.90;;;;;;5055964;28;20225;-90
2023/03/17 03:51:42;;;;;;;0.40;0.40;;;7.80;99.90;;;;;;5060318;28;20270;-88
2023/03/17 03:54:07;;;;;;;1.10;1.10;;;7.80;99.90;;;;;;5061107;28;20214;-88
2023/03/17 03:56:38;;;;;;;2.30;2.13;;;7.80;99.90;;;;;;5060878;28;20221;-90
2023/03/17 03:59:04;;;;;;;0.97;0.97;;;7.80;99.90;;;;;;5035123;28;20222;-87
2023/03/17 04:01:29;;;;;;;0.63;0.63;;;7.80;99.90;;;;;;5050724;28;20220;-88
2023/03/17 04:03:55;;;;;;;0.80;0.80;;;7.80;99.90;;;;;;5060121;28;20229;-89
2023/03/17 04:06:21;;;;;;;2.13;0.90;;;7.80;99.90;;;;;;5060563;28;20221;-87
2023/03/17 04:08:46;;;;;;;1.17;0.70;;;7.70;99.90;;;;;;5060632;28;20190;-87
2023/03/17 04:11:12;;;;;;;0.70;0.70;;;7.70;99.90;;;;;;5058952;28;20222;-87
2023/03/17 04:13:38;;;;;;;1.00;0.73;;;7.70;99.90;;;;;;5060819;28;20210;-88
2023/03/17 04:16:07;;;;;;;1.17;1.07;;;7.70;99.90;;;;;;5060277;28;20232;-87
2023/03/17 04:18:32;;;;;;;1.93;1.47;;;7.70;99.90;;;;;;5062515;28;20208;-86
2023/03/17 04:20:58;;;;;;;3.13;1.23;;;7.70;99.90;;;;;;5027011;28;20975;-90
2023/03/17 04:23:24;;;;;;;0.90;0.70;;;7.70;99.90;;;;;;5063460;28;20197;-92
2023/03/17 04:25:51;;;;;;;0.73;0.60;;;7.70;99.90;;;;;;5061746;28;20226;-86
2023/03/17 04:28:18;;;;;;;3.23;1.17;;;7.80;99.90;;;;;;5060884;28;20221;-87
2023/03/17 04:30:44;;;;;;;1.80;1.70;;;7.80;99.90;;;;;;5060365;28;20233;-88
2023/03/17 04:33:10;;;;;;;1.67;1.03;;;7.70;99.90;;;;;;5042321;28;20269;-86
2023/03/17 04:35:36;;;;;;;2.43;1.17;;;7.70;99.90;;;;;;5059619;28;20228;-91
2023/03/17 04:38:02;;;;;;;1.17;1.07;;;7.70;99.90;;;;;;5060781;28;20241;-88
2023/03/17 04:40:27;;;;;;;1.90;1.80;;;7.70;99.90;;;;;;5067073;28;20237;-87
2023/03/17 04:42:53;;;;;;;1.83;1.40;;;7.70;99.90;;;;;;5057782;28;21010;-87
2023/03/17 04:45:19;;;;;;;2.07;1.87;;;7.70;99.90;;;;;;5057941;28;20221;-87
2023/03/17 04:47:46;;;;;;;1.50;1.23;;;7.70;99.90;;;;;;5042057;28;20216;-86
2023/03/17 04:50:12;;;;;;;3.90;1.53;;;7.80;99.90;;;;;;5059245;28;20659;-86
2023/03/17 04:52:38;;;;;;;1.93;1.40;;;7.80;99.90;;;;;;5060440;28;20294;-87
2023/03/17 04:55:07;;;;;;;2.33;1.97;;;7.80;99.90;;;;;;5059567;28;20756;-87
2023/03/17 04:57:33;;;;;;;2.33;1.20;;;7.80;99.90;;;;;;5084072;28;20220;-91
2023/03/17 04:59:59;;;;;;;2.20;1.67;;;7.80;99.90;;;;;;5059310;28;20186;-86
2023/03/17 05:02:25;;;;;;;6.23;1.73;;;7.80;99.90;;;;;;5060666;28;20646;-90
2023/03/17 05:04:50;;;;;;;1.13;1.07;;;7.80;99.90;;;;;;5056165;28;20241;-86
2023/03/17 05:07:16;;;;;;;0.70;0.70;;;7.80;99.90;;;;;;5066952;28;20221;-87
2023/03/17 05:09:42;;;;;;;2.70;1.63;;;7.80;99.90;;;;;;5060312;28;20971;-90
2023/03/17 05:12:08;;;;;;;0.77;0.77;;;7.80;99.90;;;;;;5058520;28;20220;-86
2023/03/17 05:14:35;;;;;;;2.77;1.53;;;7.80;99.90;;;;;;5060360;28;20189;-87
2023/03/17 05:17:01;;;;;;;2.97;1.50;;;7.80;99.90;;;;;;5058269;28;20233;-91
2023/03/17 05:19:27;;;;;;;3.63;1.57;;;7.90;99.90;;;;;;5056622;28;20733;-86
2023/03/17 05:21:52;;;;;;;1.80;1.67;;;7.90;99.90;;;;;;5068046;28;20403;-86
2023/03/17 05:24:18;;;;;;;0.63;0.63;;;7.90;99.90;;;;;;5061636;28;20301;-87
2023/03/17 05:26:44;;;;;;;2.00;1.23;;;7.90;99.90;;;;;;5058179;28;20196;-88
2023/03/17 05:29:10;;;;;;;0.97;0.97;;;7.90;99.90;;;;;;5024825;28;20288;-89
2023/03/17 05:31:36;;;;;;;1.30;0.97;;;7.90;99.90;;;;;;5041892;28;20273;-87
2023/03/17 05:34:03;;;;;;;1.13;1.07;;;7.90;99.90;;;;;;5058573;28;20213;-88
2023/03/17 05:36:28;;;;;;;0.80;0.80;;;7.90;99.90;;;;;;5065480;28;20234;-88
2023/03/17 05:38:55;;;;;;;2.70;1.53;;;7.90;99.90;;;;;;5056241;28;20198;-88
2023/03/17 05:41:21;;;;;;;1.93;1.63;;;7.90;99.90;;;;;;5058385;28;20185;-88
2023/03/17 05:43:47;;;;;;;1.50;1.00;;;7.90;99.90;;;;;;5058247;28;20225;-87
2023/03/17 05:46:14;;;;;;;1.07;0.90;;;7.90;99.90;;;;;;5058412;28;20307;-87
2023/03/17 05:48:40;;;;;;;1.10;1.00;;;7.90;99.90;;;;;;5062326;28;20257;-87
2023/03/17 05:51:06;;;;;;;1.80;1.57;;;7.90;99.90;;;;;;5066438;28;20213;-85
2023/03/17 05:53:32;;;;;;;3.07;1.47;;;7.90;99.90;;;;;;5045811;28;20276;-87
2023/03/17 05:55:58;;;;;;;0.47;0.47;;;7.90;99.90;;;;;;5062015;28;20636;-86
2023/03/17 05:58:24;;;;;;;1.23;1.20;;;7.90;99.90;;;;;;5060710;28;20225;-86
2023/03/17 06:00:50;;;;;;;1.20;1.20;;;7.90;99.90;;;;;;5028062;28;20288;-86
2023/03/17 06:03:16;;;;;;;1.27;1.17;;;7.90;99.90;;;;;;5061034;28;20244;-87
2023/03/17 06:05:42;;;;;;;2.30;1.93;;;8.00;99.90;;;;;;5061371;28;20737;-88
2023/03/17 06:08:07;;;;;;;2.63;2.50;;;8.00;99.90;;;;;;5069942;28;20186;-94
2023/03/17 06:10:33;;;;;;;1.37;1.27;;;8.00;99.90;;;;;;5051275;28;20297;-90
2023/03/17 06:12:59;;;;;;;1.30;1.17;;;8.00;99.90;;;;;;5060753;28;20247;-88
2023/03/17 06:15:25;;;;;;;1.20;1.10;;;8.00;99.90;;;;;;5055859;28;20246;-88
2023/03/17 06:17:51;;;;;;;3.30;1.50;;;8.00;99.90;;;;;;5055131;28;20653;-90
2023/03/17 06:20:18;;;;;;;3.13;1.57;;;8.00;99.90;;;;;;5055749;28;20273;-89
2023/03/17 06:22:44;;;;;;;1.17;1.07;;;8.00;99.90;;;;;;5039957;28;20225;-93
2023/03/17 06:25:11;;;;;;;1.33;1.23;;;8.00;99.90;;;;;;5040991;28;20708;-91
2023/03/17 06:27:37;;;;;;;1.43;1.33;;;8.00;99.90;;;;;;5052717;28;20730;-92
2023/03/17 06:30:05;;;;;;;2.57;1.37;;;8.10;99.90;;;;;;5062522;28;20232;-87
2023/03/17 06:32:31;;;;;;;1.30;1.30;;;8.10;99.90;;;;;;5065809;28;20204;-90
2023/03/17 06:35:00;;;;;;;2.60;1.70;;;8.20;99.90;;;;;;5054599;28;20226;-91
2023/03/17 06:37:27;;;;;;;1.90;1.70;;;8.20;99.90;;;;;;5058716;28;20229;-91
2023/03/17 06:39:53;;;;;;;3.57;2.33;;;8.30;99.90;;;;;;5052158;28;20225;-90
2023/03/17 06:42:19;;;;;;;1.80;1.70;;;8.30;99.90;;;;;;5056470;28;20663;-91
2023/03/17 06:44:45;;;;;;;1.60;1.50;;;8.40;99.90;;;;;;5053217;28;20284;-90
2023/03/17 06:47:12;;;;;;;2.50;1.83;;;8.60;99.90;;;;;;5030584;28;20309;-90
2023/03/17 06:49:38;;;;;;;1.00;1.00;;;8.70;99.90;;;;;;5039698;28;20284;-89
2023/03/17 06:52:04;;;;;;;2.10;1.97;;;8.90;99.90;;;;;;5046802;28;20218;-92
2023/03/17 06:54:30;;;;;;;1.70;1.10;;;9.10;99.90;;;;;;5055589;28;20217;-92
2023/03/17 06:56:56;;;;;;;1.47;1.17;;;9.40;99.90;;;;;;5054083;28;20182;-92
2023/03/17 06:59:22;;;;;;;1.30;1.20;;;10.10;99.90;;;;;;5057505;28;20554;-92
2023/03/17 07:01:49;;;;;;;6.53;1.40;;;10.30;99.90;;;;;;5042734;28;20717;-93
2023/03/17 07:04:15;;;;;;;2.40;1.57;;;10.10;99.90;;;;;;5055883;28;20693;-92
2023/03/17 07:06:41;;;;;;;2.47;2.37;;;10.00;99.90;;;;;;5038640;28;20221;-92
2023/03/17 07:09:08;;;;;;;1.43;1.27;;;9.70;99.90;;;;;;5044253;28;20575;-92
2023/03/17 07:11:35;;;;;;;0.97;0.77;;;9.40;99.90;;;;;;5060739;28;20177;-86
2023/03/17 07:14:01;;;;;;;1.57;1.47;;;9.20;99.90;;;;;;5058418;28;20662;-88
2023/03/17 07:16:27;;;;;;;1.33;1.03;;;9.00;99.90;;;;;;5059549;28;20239;-88
2023/03/17 07:18:54;;;;;;;1.13;1.13;;;8.90;99.90;;;;;;5054493;28;20263;-87
2023/03/17 07:21:19;;;;;;;1.80;1.37;;;8.80;99.90;;;;;;5056487;28;20205;-88
2023/03/17 07:23:45;;;;;;;0.77;0.77;;;8.70;99.90;;;;;;5067543;28;20276;-88
2023/03/17 07:26:11;;;;;;;0.67;0.67;;;8.70;99.90;;;;;;5039118;28;20193;-89
2023/03/17 07:28:39;;;;;;;0.67;0.67;;;8.70;99.90;;;;;;5067091;28;20220;-88
2023/03/17 07:31:08;;;;;;;6.47;2.53;;;8.70;99.90;;;;;;5053262;28;20279;-88
2023/03/17 07:33:34;;;;;;;3.13;1.87;;;8.80;99.90;;;;;;5041302;28;20225;-88
2023/03/17 07:36:00;;;;;;;1.97;1.10;;;8.90;99.90;;;;;;5040018;28;20217;-87
2023/03/17 07:42:36;;;;;;;1.00;1.00;;;8.90;99.90;;;;;;5053680;28;20731;-85
2023/03/17 07:45:04;;;;;;;1.73;1.40;;;9.00;99.90;;;;;;5057202;28;20241;-89
2023/03/17 07:47:30;;;;;;;1.57;1.30;;;9.20;99.90;;;;;;5053908;28;20189;-88
2023/03/17 07:49:56;;;;;;;1.17;1.17;;;9.60;99.90;;;;;;5060119;28;20358;-88
2023/03/17 07:52:22;;;;;;;1.20;1.10;;;10.00;99.90;;;;;;5040144;28;20280;-87
2023/03/17 07:54:50;;;;;;;1.47;0.97;;;9.90;99.90;;;;;;5036096;28;20233;-90
2023/03/17 07:57:16;;;;;;;1.67;1.03;;;9.80;99.90;;;;;;5061305;28;20209;-92
2023/03/17 07:59:41;;;;;;;0.93;0.93;;;9.70;99.90;;;;;;5062148;28;20676;-89
2023/03/17 08:02:13;;;;;;;1.67;1.57;;;9.70;99.90;;;;;;5051621;28;20201;-93
2023/03/17 08:04:39;;;;;;;2.10;0.60;;;9.70;99.90;;;;;;5057820;28;20274;-91
2023/03/17 08:07:05;;;;;;;1.97;1.43;;;9.80;99.90;;;;;;5064243;28;20544;-91
2023/03/17 08:09:31;;;;;;;2.33;1.27;;;9.80;99.90;;;;;;5060249;28;20716;-90
2023/03/17 08:11:57;;;;;;;1.77;1.63;;;9.80;99.90;;;;;;5039320;28;20695;-88
2023/03/17 08:14:23;;;;;;;2.07;1.87;;;9.90;99.90;;;;;;5052558;28;20185;-92
2023/03/17 08:16:48;;;;;;;1.40;1.30;;;10.00;99.90;;;;;;5045590;28;20248;-90
2023/03/17 08:19:15;;;;;;;1.23;1.13;;;10.10;99.90;;;;;;5042667;28;20217;-91
2023/03/17 08:21:40;;;;;;;1.27;1.23;;;10.20;99.90;;;;;;5059872;28;20214;-89
2023/03/17 08:24:06;;;;;;;1.93;1.83;;;10.30;99.90;;;;;;5068436;28;20196;-92
2023/03/17 08:26:32;;;;;;;5.77;1.60;;;10.50;99.90;;;;;;5076571;28;20190;-95
2023/03/17 08:28:59;;;;;;;2.37;2.20;;;10.60;99.90;;;;;;5061426;28;20189;-92
2023/03/17 08:31:25;;;;;;;4.63;2.70;;;10.70;99.90;;;;;;5060690;28;20580;-93
2023/03/17 08:33:53;;;;;;;5.10;1.23;;;10.70;99.90;;;;;;5046560;28;20209;-89
2023/03/17 08:36:20;;;;;;;1.30;1.30;;;10.90;99.90;;;;;;5060249;28;20220;-93
2023/03/17 08:38:47;;;;;;;1.03;0.80;;;11.40;99.90;;;;;;5058761;28;20237;-92
2023/03/17 08:41:17;;;;;;;2.90;1.83;;;11.50;99.90;;;;;;5060765;28;20306;-92
2023/03/17 08:43:44;;;;;;;1.77;1.00;;;11.50;99.90;;;;;;5060797;28;20257;-94
2023/03/17 08:46:15;;;;;;;1.50;1.40;;;11.60;99.90;;;;;;5062178;28;20225;-90
2023/03/17 08:49:03;;;;;;;2.50;1.30;;;11.60;99.90;;;;;;5032610;28;20317;-90
2023/03/17 08:51:33;;;;;;;2.97;1.50;;;11.80;99.90;;;;;;5037120;28;20649;-90
2023/03/17 08:54:08;;;;;;;1.93;0.93;;;12.10;99.90;;;;;;5037691;28;20200;-91
2023/03/17 08:56:34;;;;;;;2.67;1.67;;;12.40;99.90;;;;;;5054492;28;20213;-89
2023/03/17 08:58:59;;;;;;;1.60;1.37;;;12.50;99.90;;;;;;5054010;28;20304;-90
2023/03/17 09:01:36;;;;;;;3.47;1.43;;;12.70;99.90;;;;;;5038530;28;20232;-89
2023/03/17 09:04:02;;;;;;;1.10;1.00;;;12.50;99.90;;;;;;5052756;28;20222;-90
2023/03/17 09:06:31;;;;;;;1.47;1.10;;;12.40;99.90;;;;;;5032259;28;20300;-89
2023/03/17 09:08:56;;;;;;;2.30;1.87;;;12.40;99.90;;;;;;5035672;28;20301;-87
2023/03/17 09:11:25;;;;;;;1.47;1.37;;;12.40;99.90;;;;;;5003362;28;20655;-86
2023/03/17 09:13:51;;;;;;;1.27;1.17;;;12.30;99.90;;;;;;5053760;28;20744;-87
2023/03/17 09:16:18;;;;;;;1.33;0.90;;;12.40;99.90;;;;;;5053714;28;20682;-88
2023/03/17 09:18:45;;;;;;;3.80;1.50;;;12.50;99.90;;;;;;5031612;28;20217;-89
2023/03/17 09:21:12;;;;;;;2.40;1.80;;;12.50;99.90;;;;;;5060953;28;20241;-87
2023/03/17 09:23:38;;;;;;;2.87;1.53;;;12.80;99.90;;;;;;5085576;28;20235;-87
2023/03/17 09:26:04;;;;;;;1.33;1.23;;;13.00;99.90;;;;;;5031348;28;20683;-89
2023/03/17 09:28:30;;;;;;;0.77;0.77;;;13.00;99.90;;;;;;5039686;28;20671;-86
2023/03/17 09:31:01;;;;;;;1.70;1.40;;;13.30;99.90;;;;;;5055538;28;20225;-86
2023/03/17 09:33:27;;;;;;;1.37;1.27;;;13.60;99.90;;;;;;5057593;28;20220;-86
2023/03/17 09:35:55;;;;;;;2.37;1.97;;;13.50;99.90;;;;;;5055096;28;20213;-86
2023/03/17 09:38:26;;;;;;;1.60;1.10;;;13.90;99.90;;;;;;5057061;28;20279;-87
2023/03/17 09:40:56;;;;;;;1.30;1.20;;;14.30;99.90;;;;;;5065611;28;20311;-87
2023/03/17 09:43:34;;;;;;;4.03;1.63;;;14.80;99.90;;;;;;5055142;28;20294;-86
2023/03/17 09:46:39;;;;;;;3.40;1.77;;;15.20;99.90;;;;;;5059009;28;20221;-91
2023/03/17 09:49:12;;;;;;;1.80;1.50;;;15.40;99.90;;;;;;5037003;28;20221;-88
2023/03/17 09:51:39;;;;;;;2.03;1.10;;;15.30;99.90;;;;;;5055462;28;20213;-89
2023/03/17 09:54:22;;;;;;;2.50;1.70;;;15.30;99.90;;;;;;5055936;28;20209;-87
2023/03/17 09:56:56;;;;;;;2.13;1.47;;;16.10;99.90;;;;;;5078726;28;20235;-92
2023/03/17 09:59:44;;;;;;;3.70;1.80;;;16.60;99.90;;;;;;5081160;28;20189;-88
2023/03/17 10:02:22;;;;;;;3.63;1.67;;;17.50;99.90;;;;;;5059206;28;20214;-86
2023/03/17 10:04:48;;;;;;;1.83;1.70;;;18.10;99.90;;;;;;5052336;28;20298;-92
2023/03/17 10:07:18;;;;;;;4.17;1.97;;;18.70;99.90;;;;;;5039380;28;20228;-87
2023/03/17 10:09:50;;;;;;;1.73;1.60;;;18.60;99.90;;;;;;5052932;28;20237;-90
2023/03/17 10:12:35;;;;;;;2.50;1.87;;;17.50;99.90;;;;;;5057019;28;20221;-86
2023/03/17 10:15:05;;;;;;;1.90;1.70;;;16.90;99.90;;;;;;5081253;28;20240;-89
2023/03/17 10:17:35;;;;;;;4.07;2.30;;;16.30;99.90;;;;;;5054420;28;20184;-92
2023/03/17 10:20:04;;;;;;;4.33;2.13;;;16.90;99.90;;;;;;5063327;28;20214;-86
2023/03/17 10:22:39;;;;;;;4.73;3.10;;;18.50;99.90;;;;;;5054392;28;20221;-87
2023/03/17 10:25:21;;;;;;;3.40;2.73;;;19.60;99.90;;;;;;5056311;28;20233;-88
2023/03/17 10:28:00;;;;;;;2.97;2.20;;;20.30;99.90;;;;;;5055055;28;20222;-86
2023/03/17 10:30:29;;;;;;;4.50;3.43;;;19.70;99.90;;;;;;5054948;28;20243;-87
2023/03/17 10:32:59;;;;;;;2.87;2.30;;;18.80;99.90;;;;;;5056670;28;20182;-88
2023/03/17 10:35:25;;;;;;;4.67;2.27;;;18.30;99.90;;;;;;5055012;28;20662;-88
2023/03/17 10:37:52;;;;;;;4.37;2.47;;;17.00;99.90;;;;;;5040651;28;20229;-92
2023/03/17 10:40:24;;;;;;;3.93;2.57;;;17.00;99.90;;;;;;5037282;28;20637;-88
2023/03/17 10:43:02;;;;;;;3.10;2.13;;;18.10;99.90;;;;;;5053997;28;20240;-86
2023/03/17 10:45:31;;;;;;;4.03;2.67;;;18.50;99.90;;;;;;5054296;28;20237;-87
2023/03/17 10:48:00;;;;;;;2.70;2.20;;;19.30;99.90;;;;;;5079189;28;20189;-86
2023/03/17 10:50:29;;;;;;;2.33;2.13;;;19.10;99.90;;;;;;5055221;28;20247;-94
2023/03/17 10:53:06;;;;;;;6.13;2.70;;;19.00;99.90;;;;;;5062090;28;20217;-87
2023/03/17 10:55:48;;;;;;;3.10;2.10;;;19.90;99.90;;;;;;5054377;28;20346;-87
2023/03/17 10:58:20;;;;;;;2.73;2.53;;;20.10;99.90;;;;;;5054687;28;20228;-88
2023/03/17 11:00:55;;;;;;;5.53;2.77;;;20.10;99.90;;;;;;5053621;28;20555;-88
2023/03/17 11:03:32;;;;;;;8.83;2.80;;;20.30;99.90;;;;;;5053740;28;20212;-86
2023/03/17 11:06:05;;;;;;;3.87;2.40;;;21.00;99.90;;;;;;5062465;28;20380;-90
2023/03/17 11:08:38;;;;;;;5.63;2.63;;;20.50;99.90;;;;;;5055822;28;20181;-89
2023/03/17 11:11:09;;;;;;;3.53;3.20;;;20.90;99.90;;;;;;5054606;28;20217;-90
2023/03/17 11:13:35;;;;;;;3.53;2.73;;;20.40;99.90;;;;;;5054301;28;20217;-87
2023/03/17 11:16:17;;;;;;;6.50;3.83;;;20.50;99.90;;;;;;5045153;28;20229;-88
2023/03/17 11:18:46;;;;;;;2.73;2.50;;;20.90;99.90;;;;;;5055518;28;20228;-88
2023/03/17 11:21:25;;;;;;;4.13;2.87;;;19.70;99.90;;;;;;5028092;28;20243;-89
2023/03/17 11:23:52;;;;;;;3.50;3.07;;;19.80;99.90;;;;;;5060262;28;20178;-87
2023/03/17 11:26:37;;;;;;;5.10;3.60;;;19.90;99.90;;;;;;5051562;28;20193;-89
2023/03/17 11:29:12;;;;;;;4.20;3.43;;;20.40;99.90;;;;;;5055387;28;20330;-86
2023/03/17 11:31:54;;;;;;;6.60;3.30;;;19.90;99.90;;;;;;5056173;28;20228;-93
2023/03/17 11:34:50;;;;;;;6.43;3.70;;;19.60;99.90;;;;;;5056023;28;20227;-88
2023/03/17 11:37:54;;;;;;;4.90;3.40;;;20.40;99.90;;;;;;5056303;28;20693;-91
2023/03/17 11:40:42;;;;;;;4.83;3.53;;;19.60;99.90;;;;;;5056101;28;20233;-87
2023/03/17 11:43:31;;;;;;;7.03;3.57;;;19.20;99.90;;;;;;5063348;28;20221;-88
2023/03/17 11:46:03;;;;;;;3.47;3.17;;;20.10;99.90;;;;;;5055098;28;20221;-90
2023/03/17 11:48:41;;;;;;;5.93;3.77;;;20.00;99.90;;;;;;5061394;28;20312;-87
2023/03/17 11:51:26;;;;;;;7.03;3.13;;;19.30;99.90;;;;;;5062497;28;20221;-90
2023/03/17 11:54:23;;;;;;;8.13;3.27;;;19.40;99.90;;;;;;5062698;28;20239;-89
2023/03/17 11:57:02;;;;;;;3.40;2.77;;;19.90;99.90;;;;;;5043881;28;20683;-89
2023/03/17 11:59:52;;;;;;;5.17;3.63;;;19.60;99.90;;;;;;5056120;28;20350;-89
2023/03/17 12:02:30;;;;;;;4.20;3.67;;;19.00;99.90;;;;;;5055020;28;20592;-87
2023/03/17 12:05:10;;;;;;;5.30;3.50;;;18.70;99.90;;;;;;5054112;28;20225;-87
2023/03/17 12:07:54;;;;;;;4.80;3.23;;;19.10;99.90;;;;;;5061376;28;20231;-88
2023/03/17 12:10:39;;;;;;;5.93;3.77;;;17.90;99.90;;;;;;5058659;28;20244;-88
2023/03/17 12:13:38;;;;;;;4.83;3.10;;;17.90;99.90;;;;;;5059212;28;20231;-87
2023/03/17 12:16:14;;;;;;;9.83;3.23;;;17.70;99.90;;;;;;5056952;28;20221;-88
2023/03/17 12:19:09;;;;;;;5.27;2.90;;;17.30;99.90;;;;;;5055019;28;20497;-87
2023/03/17 12:21:54;;;;;;;3.60;3.30;;;17.10;99.90;;;;;;5057294;28;20202;-87
2023/03/17 12:24:20;;;;;;;5.00;4.47;;;17.10;99.90;;;;;;5062084;28;20213;-88
2023/03/17 12:26:50;;;;;;;4.47;3.17;;;17.40;99.90;;;;;;5050639;28;20675;-89
2023/03/17 12:29:24;;;;;;;6.10;3.50;;;17.40;99.90;;;;;;5052209;28;20217;-87
2023/03/17 12:32:20;;;;;;;5.00;3.67;;;17.00;99.90;;;;;;5057518;28;20221;-92
2023/03/17 12:34:57;;;;;;;5.87;3.27;;;16.30;99.90;;;;;;5064801;28;20686;-85
2023/03/17 12:37:26;;;;;;;2.50;2.13;;;15.70;99.90;;;;;;5058011;28;20232;-87
2023/03/17 12:39:57;;;;;;;3.93;2.97;;;15.70;99.90;;;;;;5060427;28;20236;-87
2023/03/17 12:42:35;;;;;;;7.30;3.53;;;15.50;99.90;;;;;;5057318;28;20198;-85
2023/03/17 12:45:21;;;;;;;6.37;3.53;;;15.70;99.90;;;;;;5063794;28;20206;-87
2023/03/17 12:48:27;;;;;;;3.83;3.50;;;15.70;99.90;;;;;;5052708;28;20221;-89
2023/03/17 12:51:12;;;;;;;8.03;3.57;;;15.70;99.90;;;;;;5052678;28;20662;-86
2023/03/17 12:53:41;;;;;;;6.53;4.03;;;15.90;99.90;;;;;;5055126;28;20243;-87
2023/03/17 12:56:16;;;;;;;4.40;2.80;;;16.10;99.90;;;;;;5055671;28;20759;-88
2023/03/17 12:58:50;;;;;;;4.63;3.70;;;16.30;99.90;;;;;;5057983;28;20666;-86
2023/03/17 13:01:37;;;;;;;8.03;3.83;;;16.40;99.90;;;;;;5057027;28;20188;-86
2023/03/17 13:04:36;;;;;;;7.27;4.33;;;16.20;99.90;;;;;;5058094;28;20174;-85
2023/03/17 13:07:13;;;;;;;11.03;3.90;;;16.50;99.90;;;;;;5059304;28;20218;-88
2023/03/17 13:10:08;;;;;;;4.37;3.17;;;16.30;99.90;;;;;;5058385;28;20210;-85
2023/03/17 13:12:37;;;;;;;4.40;3.43;;;16.30;99.90;;;;;;5057993;28;20685;-92